Terminal Aerodrome Forecast
Issued by NWS

Home | Current Version | Previous Version | Text Only | Print | Product List | Glossary On
Versions: 1 2 3 4 5 6 7 8 9 10 11 12 13 14 15 16
000
FTUS43 KFGF 290500
TAFTVF
TAF
KTVF 290520Z 2906/3006 16006KT P6SM OVC025
     FM290900 14005KT 4SM BR OVC009
     FM291400 01004KT P6SM BKN015
     FM292100 33010KT P6SM BKN050
      AMD LTD TO CLD VIS AND WIND=

USA.gov is the U.S. government's official web portal to all federal, state and local government web resources and services.